sensor_id;sensor_type;location;lat;lon;timestamp;P1;durP1;ratioP1;P2;durP2;ratioP2
13263;SDS011;6700;51.988;7.646;2023-09-12T00:02:12;15.40;;;13.80;;
13263;SDS011;6700;51.988;7.646;2023-09-12T00:04:39;23.37;;;15.77;;
13263;SDS011;6700;51.988;7.646;2023-09-12T00:07:07;20.40;;;16.33;;
13263;SDS011;6700;51.988;7.646;2023-09-12T00:09:34;21.73;;;16.27;;
13263;SDS011;6700;51.988;7.646;2023-09-12T00:12:02;20.63;;;16.13;;
13263;SDS011;6700;51.988;7.646;2023-09-12T00:14:29;25.03;;;16.73;;
13263;SDS011;6700;51.988;7.646;2023-09-12T00:16:56;23.80;;;16.55;;
13263;SDS011;6700;51.988;7.646;2023-09-12T00:19:23;19.30;;;15.70;;
13263;SDS011;6700;51.988;7.646;2023-09-12T00:21:51;19.27;;;16.07;;
13263;SDS011;6700;51.988;7.646;2023-09-12T00:24:19;21.10;;;15.73;;
13263;SDS011;6700;51.988;7.646;2023-09-12T00:26:46;19.13;;;15.40;;
13263;SDS011;6700;51.988;7.646;2023-09-12T00:29:14;21.83;;;16.00;;
13263;SDS011;6700;51.988;7.646;2023-09-12T00:31:41;19.67;;;17.03;;
13263;SDS011;6700;51.988;7.646;2023-09-12T00:34:08;21.10;;;16.77;;
13263;SDS011;6700;51.988;7.646;2023-09-12T00:36:36;21.83;;;16.27;;
13263;SDS011;6700;51.988;7.646;2023-09-12T00:39:04;21.50;;;17.37;;
13263;SDS011;6700;51.988;7.646;2023-09-12T00:41:31;22.40;;;18.33;;
13263;SDS011;6700;51.988;7.646;2023-09-12T00:43:58;23.63;;;19.03;;
13263;SDS011;6700;51.988;7.646;2023-09-12T00:46:25;23.95;;;18.75;;
13263;SDS011;6700;51.988;7.646;2023-09-12T00:48:53;22.33;;;18.10;;
13263;SDS011;6700;51.988;7.646;2023-09-12T00:51:20;22.67;;;18.65;;
13263;SDS011;6700;51.988;7.646;2023-09-12T00:53:48;25.93;;;21.07;;
13263;SDS011;6700;51.988;7.646;2023-09-12T00:56:15;32.10;;;21.05;;
13263;SDS011;6700;51.988;7.646;2023-09-12T00:58:43;28.17;;;21.27;;
13263;SDS011;6700;51.988;7.646;2023-09-12T01:01:11;31.25;;;22.02;;
13263;SDS011;6700;51.988;7.646;2023-09-12T01:03:39;30.07;;;24.33;;
13263;SDS011;6700;51.988;7.646;2023-09-12T01:06:06;31.42;;;24.27;;
13263;SDS011;6700;51.988;7.646;2023-09-12T01:08:35;34.03;;;25.20;;
13263;SDS011;6700;51.988;7.646;2023-09-12T01:11:04;34.00;;;24.75;;
13263;SDS011;6700;51.988;7.646;2023-09-12T01:13:32;29.43;;;24.00;;
13263;SDS011;6700;51.988;7.646;2023-09-12T01:15:59;34.67;;;24.17;;
13263;SDS011;6700;51.988;7.646;2023-09-12T01:18:26;39.43;;;25.83;;
13263;SDS011;6700;51.988;7.646;2023-09-12T01:21:20;37.43;;;27.43;;
13263;SDS011;6700;51.988;7.646;2023-09-12T01:26:38;35.47;;;25.80;;
13263;SDS011;6700;51.988;7.646;2023-09-12T01:29:08;39.57;;;24.13;;
13263;SDS011;6700;51.988;7.646;2023-09-12T01:31:36;39.07;;;27.23;;
13263;SDS011;6700;51.988;7.646;2023-09-12T01:34:10;41.60;;;27.77;;
13263;SDS011;6700;51.988;7.646;2023-09-12T01:36:38;39.77;;;29.17;;
13263;SDS011;6700;51.988;7.646;2023-09-12T01:39:05;38.63;;;27.70;;
13263;SDS011;6700;51.988;7.646;2023-09-12T01:41:34;39.57;;;27.93;;
13263;SDS011;6700;51.988;7.646;2023-09-12T01:44:02;43.07;;;26.07;;
13263;SDS011;6700;51.988;7.646;2023-09-12T01:46:29;39.20;;;28.27;;
13263;SDS011;6700;51.988;7.646;2023-09-12T01:48:58;41.00;;;27.33;;
13263;SDS011;6700;51.988;7.646;2023-09-12T01:51:25;37.57;;;25.03;;
13263;SDS011;6700;51.988;7.646;2023-09-12T01:53:53;37.07;;;25.03;;
13263;SDS011;6700;51.988;7.646;2023-09-12T01:56:21;36.03;;;23.40;;
13263;SDS011;6700;51.988;7.646;2023-09-12T01:58:48;30.70;;;22.13;;
13263;SDS011;6700;51.988;7.646;2023-09-12T02:01:16;31.90;;;20.65;;
13263;SDS011;6700;51.988;7.646;2023-09-12T02:03:43;28.70;;;19.40;;
13263;SDS011;6700;51.988;7.646;2023-09-12T02:06:10;25.50;;;18.50;;
13263;SDS011;6700;51.988;7.646;2023-09-12T02:08:37;23.17;;;17.30;;
13263;SDS011;6700;51.988;7.646;2023-09-12T02:11:05;19.43;;;15.67;;
13263;SDS011;6700;51.988;7.646;2023-09-12T02:13:32;21.13;;;16.00;;
13263;SDS011;6700;51.988;7.646;2023-09-12T02:15:59;21.27;;;16.67;;
13263;SDS011;6700;51.988;7.646;2023-09-12T02:18:27;20.23;;;15.03;;
13263;SDS011;6700;51.988;7.646;2023-09-12T02:20:54;19.70;;;15.53;;
13263;SDS011;6700;51.988;7.646;2023-09-12T02:23:22;16.07;;;12.87;;
13263;SDS011;6700;51.988;7.646;2023-09-12T02:25:49;17.27;;;13.10;;
13263;SDS011;6700;51.988;7.646;2023-09-12T02:28:16;14.63;;;12.67;;
13263;SDS011;6700;51.988;7.646;2023-09-12T02:30:43;17.50;;;12.63;;
13263;SDS011;6700;51.988;7.646;2023-09-12T02:33:10;15.50;;;11.83;;
13263;SDS011;6700;51.988;7.646;2023-09-12T02:35:38;15.70;;;12.27;;
13263;SDS011;6700;51.988;7.646;2023-09-12T02:38:05;12.43;;;10.53;;
13263;SDS011;6700;51.988;7.646;2023-09-12T02:40:32;15.20;;;10.50;;
13263;SDS011;6700;51.988;7.646;2023-09-12T02:42:59;16.80;;;11.70;;
13263;SDS011;6700;51.988;7.646;2023-09-12T02:45:26;14.10;;;12.03;;
13263;SDS011;6700;51.988;7.646;2023-09-12T02:47:53;14.50;;;11.23;;
13263;SDS011;6700;51.988;7.646;2023-09-12T02:50:20;14.40;;;10.13;;
13263;SDS011;6700;51.988;7.646;2023-09-12T02:52:48;16.83;;;12.17;;
13263;SDS011;6700;51.988;7.646;2023-09-12T02:55:15;14.80;;;11.00;;
13263;SDS011;6700;51.988;7.646;2023-09-12T02:57:42;12.53;;;11.23;;
13263;SDS011;6700;51.988;7.646;2023-09-12T03:00:09;13.50;;;11.17;;
13263;SDS011;6700;51.988;7.646;2023-09-12T03:02:37;17.27;;;11.40;;
13263;SDS011;6700;51.988;7.646;2023-09-12T03:05:04;13.60;;;11.50;;
13263;SDS011;6700;51.988;7.646;2023-09-12T03:07:32;16.80;;;13.13;;
13263;SDS011;6700;51.988;7.646;2023-09-12T03:09:59;21.30;;;12.60;;
13263;SDS011;6700;51.988;7.646;2023-09-12T03:12:26;23.63;;;13.53;;
13263;SDS011;6700;51.988;7.646;2023-09-12T03:14:53;14.20;;;11.97;;
13263;SDS011;6700;51.988;7.646;2023-09-12T03:17:20;16.60;;;13.53;;
13263;SDS011;6700;51.988;7.646;2023-09-12T03:19:48;13.20;;;9.33;;
13263;SDS011;6700;51.988;7.646;2023-09-12T03:22:16;10.87;;;9.57;;
13263;SDS011;6700;51.988;7.646;2023-09-12T03:24:43;11.07;;;9.87;;
13263;SDS011;6700;51.988;7.646;2023-09-12T03:27:11;10.60;;;9.50;;
13263;SDS011;6700;51.988;7.646;2023-09-12T03:29:39;12.37;;;8.80;;
13263;SDS011;6700;51.988;7.646;2023-09-12T03:32:06;10.60;;;8.50;;
13263;SDS011;6700;51.988;7.646;2023-09-12T03:34:33;12.57;;;8.90;;
13263;SDS011;6700;51.988;7.646;2023-09-12T03:37:00;10.38;;;8.55;;
13263;SDS011;6700;51.988;7.646;2023-09-12T03:39:28;13.37;;;9.33;;
13263;SDS011;6700;51.988;7.646;2023-09-12T03:41:55;10.83;;;9.67;;
13263;SDS011;6700;51.988;7.646;2023-09-12T03:44:22;12.67;;;9.33;;
13263;SDS011;6700;51.988;7.646;2023-09-12T03:46:50;9.83;;;8.73;;
13263;SDS011;6700;51.988;7.646;2023-09-12T03:49:17;14.60;;;8.50;;
13263;SDS011;6700;51.988;7.646;2023-09-12T03:51:44;9.57;;;7.67;;
13263;SDS011;6700;51.988;7.646;2023-09-12T03:54:11;7.50;;;6.73;;
13263;SDS011;6700;51.988;7.646;2023-09-12T03:56:38;7.87;;;6.80;;
13263;SDS011;6700;51.988;7.646;2023-09-12T03:59:06;8.60;;;7.47;;
13263;SDS011;6700;51.988;7.646;2023-09-12T04:01:33;9.53;;;7.77;;
13263;SDS011;6700;51.988;7.646;2023-09-12T04:04:01;12.20;;;7.80;;
13263;SDS011;6700;51.988;7.646;2023-09-12T04:06:29;8.87;;;7.07;;
13263;SDS011;6700;51.988;7.646;2023-09-12T04:08:57;8.90;;;6.90;;
13263;SDS011;6700;51.988;7.646;2023-09-12T04:11:24;11.73;;;7.70;;
13263;SDS011;6700;51.988;7.646;2023-09-12T04:14:09;8.47;;;7.10;;
13263;SDS011;6700;51.988;7.646;2023-09-12T04:16:36;7.73;;;6.63;;
13263;SDS011;6700;51.988;7.646;2023-09-12T04:19:04;9.73;;;7.07;;
13263;SDS011;6700;51.988;7.646;2023-09-12T04:21:31;9.30;;;7.23;;
13263;SDS011;6700;51.988;7.646;2023-09-12T04:23:58;10.50;;;7.23;;
13263;SDS011;6700;51.988;7.646;2023-09-12T04:26:26;9.83;;;7.27;;
13263;SDS011;6700;51.988;7.646;2023-09-12T04:28:53;12.33;;;6.63;;
13263;SDS011;6700;51.988;7.646;2023-09-12T04:31:20;9.37;;;8.37;;
13263;SDS011;6700;51.988;7.646;2023-09-12T04:33:50;12.00;;;8.40;;
13263;SDS011;6700;51.988;7.646;2023-09-12T04:36:18;10.67;;;8.20;;
13263;SDS011;6700;51.988;7.646;2023-09-12T04:38:45;11.73;;;8.17;;
13263;SDS011;6700;51.988;7.646;2023-09-12T04:41:13;9.40;;;8.03;;
13263;SDS011;6700;51.988;7.646;2023-09-12T04:43:43;12.87;;;8.87;;
13263;SDS011;6700;51.988;7.646;2023-09-12T04:46:11;11.00;;;8.73;;
13263;SDS011;6700;51.988;7.646;2023-09-12T04:48:38;10.00;;;8.50;;
13263;SDS011;6700;51.988;7.646;2023-09-12T04:51:06;14.23;;;9.03;;
13263;SDS011;6700;51.988;7.646;2023-09-12T04:53:33;9.23;;;8.17;;
13263;SDS011;6700;51.988;7.646;2023-09-12T04:56:01;11.50;;;8.93;;
13263;SDS011;6700;51.988;7.646;2023-09-12T04:58:28;10.83;;;9.03;;
13263;SDS011;6700;51.988;7.646;2023-09-12T05:00:55;9.37;;;8.00;;
13263;SDS011;6700;51.988;7.646;2023-09-12T05:03:24;12.73;;;9.20;;
13263;SDS011;6700;51.988;7.646;2023-09-12T05:05:53;11.90;;;8.83;;
13263;SDS011;6700;51.988;7.646;2023-09-12T05:08:20;10.93;;;8.80;;
13263;SDS011;6700;51.988;7.646;2023-09-12T05:10:47;9.90;;;8.67;;
13263;SDS011;6700;51.988;7.646;2023-09-12T05:13:14;10.60;;;8.63;;
13263;SDS011;6700;51.988;7.646;2023-09-12T05:15:41;9.83;;;8.83;;
13263;SDS011;6700;51.988;7.646;2023-09-12T05:18:09;9.43;;;8.53;;
13263;SDS011;6700;51.988;7.646;2023-09-12T05:20:37;8.53;;;7.57;;
13263;SDS011;6700;51.988;7.646;2023-09-12T05:23:04;10.30;;;9.17;;
13263;SDS011;6700;51.988;7.646;2023-09-12T05:25:31;10.63;;;9.40;;
13263;SDS011;6700;51.988;7.646;2023-09-12T05:27:58;11.53;;;9.43;;
13263;SDS011;6700;51.988;7.646;2023-09-12T05:30:26;11.83;;;10.33;;
13263;SDS011;6700;51.988;7.646;2023-09-12T05:32:53;12.07;;;10.73;;
13263;SDS011;6700;51.988;7.646;2023-09-12T05:35:20;15.03;;;10.67;;
13263;SDS011;6700;51.988;7.646;2023-09-12T05:37:48;11.53;;;10.33;;
13263;SDS011;6700;51.988;7.646;2023-09-12T05:40:15;13.60;;;10.10;;
13263;SDS011;6700;51.988;7.646;2023-09-12T05:42:43;14.63;;;9.97;;
13263;SDS011;6700;51.988;7.646;2023-09-12T05:45:10;14.17;;;10.37;;
13263;SDS011;6700;51.988;7.646;2023-09-12T05:47:37;11.97;;;9.47;;
13263;SDS011;6700;51.988;7.646;2023-09-12T05:50:05;11.63;;;9.40;;
13263;SDS011;6700;51.988;7.646;2023-09-12T05:52:33;12.53;;;9.67;;
13263;SDS011;6700;51.988;7.646;2023-09-12T05:55:00;12.60;;;9.63;;
13263;SDS011;6700;51.988;7.646;2023-09-12T05:57:27;15.63;;;10.63;;
13263;SDS011;6700;51.988;7.646;2023-09-12T05:59:55;11.10;;;9.97;;
13263;SDS011;6700;51.988;7.646;2023-09-12T06:02:22;11.33;;;9.97;;
13263;SDS011;6700;51.988;7.646;2023-09-12T06:04:49;11.03;;;9.70;;
13263;SDS011;6700;51.988;7.646;2023-09-12T06:07:16;12.00;;;9.70;;
13263;SDS011;6700;51.988;7.646;2023-09-12T06:09:43;11.93;;;10.57;;
13263;SDS011;6700;51.988;7.646;2023-09-12T06:12:11;12.70;;;11.07;;
13263;SDS011;6700;51.988;7.646;2023-09-12T06:14:38;14.57;;;10.63;;
13263;SDS011;6700;51.988;7.646;2023-09-12T06:17:05;13.13;;;10.53;;
13263;SDS011;6700;51.988;7.646;2023-09-12T06:19:32;16.87;;;10.40;;
13263;SDS011;6700;51.988;7.646;2023-09-12T06:21:59;11.90;;;10.03;;
13263;SDS011;6700;51.988;7.646;2023-09-12T06:24:27;12.90;;;10.47;;
13263;SDS011;6700;51.988;7.646;2023-09-12T06:26:54;14.17;;;10.97;;
13263;SDS011;6700;51.988;7.646;2023-09-12T06:29:22;12.70;;;11.40;;
13263;SDS011;6700;51.988;7.646;2023-09-12T06:31:52;14.23;;;11.13;;
13263;SDS011;6700;51.988;7.646;2023-09-12T06:34:21;12.67;;;11.37;;
13263;SDS011;6700;51.988;7.646;2023-09-12T06:36:48;12.93;;;11.50;;
13263;SDS011;6700;51.988;7.646;2023-09-12T06:39:16;15.87;;;12.53;;
13263;SDS011;6700;51.988;7.646;2023-09-12T06:41:43;17.10;;;14.00;;
13263;SDS011;6700;51.988;7.646;2023-09-12T06:44:10;22.07;;;13.93;;
13263;SDS011;6700;51.988;7.646;2023-09-12T06:46:38;24.80;;;15.07;;
13263;SDS011;6700;51.988;7.646;2023-09-12T06:49:05;22.07;;;15.37;;
13263;SDS011;6700;51.988;7.646;2023-09-12T06:51:32;22.70;;;16.47;;
13263;SDS011;6700;51.988;7.646;2023-09-12T06:54:04;23.43;;;16.40;;
13263;SDS011;6700;51.988;7.646;2023-09-12T06:56:31;23.43;;;18.27;;
13263;SDS011;6700;51.988;7.646;2023-09-12T06:59:04;22.43;;;16.13;;
13263;SDS011;6700;51.988;7.646;2023-09-12T07:01:31;23.03;;;16.30;;
13263;SDS011;6700;51.988;7.646;2023-09-12T07:03:59;22.43;;;16.53;;
13263;SDS011;6700;51.988;7.646;2023-09-12T07:06:26;24.30;;;16.07;;
13263;SDS011;6700;51.988;7.646;2023-09-12T07:08:54;22.13;;;16.20;;
13263;SDS011;6700;51.988;7.646;2023-09-12T07:11:21;20.97;;;15.77;;
13263;SDS011;6700;51.988;7.646;2023-09-12T07:13:50;24.40;;;17.27;;
13263;SDS011;6700;51.988;7.646;2023-09-12T07:16:18;27.03;;;17.27;;
13263;SDS011;6700;51.988;7.646;2023-09-12T07:18:50;20.67;;;16.80;;
13263;SDS011;6700;51.988;7.646;2023-09-12T07:21:18;23.77;;;17.37;;
13263;SDS011;6700;51.988;7.646;2023-09-12T07:23:45;25.03;;;17.53;;
13263;SDS011;6700;51.988;7.646;2023-09-12T07:26:13;22.00;;;16.80;;
13263;SDS011;6700;51.988;7.646;2023-09-12T07:28:40;27.20;;;16.83;;
13263;SDS011;6700;51.988;7.646;2023-09-12T07:31:07;23.03;;;17.20;;
13263;SDS011;6700;51.988;7.646;2023-09-12T07:33:35;22.63;;;16.80;;
13263;SDS011;6700;51.988;7.646;2023-09-12T07:36:02;23.92;;;17.40;;
13263;SDS011;6700;51.988;7.646;2023-09-12T07:38:30;22.10;;;17.50;;
13263;SDS011;6700;51.988;7.646;2023-09-12T07:40:57;23.57;;;16.97;;
13263;SDS011;6700;51.988;7.646;2023-09-12T07:43:26;26.70;;;17.73;;
13263;SDS011;6700;51.988;7.646;2023-09-12T07:45:57;22.40;;;17.73;;
13263;SDS011;6700;51.988;7.646;2023-09-12T07:48:26;26.87;;;17.73;;
13263;SDS011;6700;51.988;7.646;2023-09-12T07:50:54;28.40;;;18.13;;
13263;SDS011;6700;51.988;7.646;2023-09-12T07:53:21;26.97;;;19.20;;
13263;SDS011;6700;51.988;7.646;2023-09-12T07:55:48;25.23;;;18.03;;
13263;SDS011;6700;51.988;7.646;2023-09-12T07:58:17;24.13;;;18.80;;
13263;SDS011;6700;51.988;7.646;2023-09-12T08:00:45;23.13;;;18.27;;
13263;SDS011;6700;51.988;7.646;2023-09-12T08:03:12;24.10;;;17.47;;
13263;SDS011;6700;51.988;7.646;2023-09-12T08:05:40;22.50;;;16.77;;
13263;SDS011;6700;51.988;7.646;2023-09-12T08:08:08;21.60;;;17.53;;
13263;SDS011;6700;51.988;7.646;2023-09-12T08:10:35;26.40;;;18.87;;
13263;SDS011;6700;51.988;7.646;2023-09-12T08:13:02;24.80;;;18.07;;
13263;SDS011;6700;51.988;7.646;2023-09-12T08:15:30;22.60;;;18.30;;
13263;SDS011;6700;51.988;7.646;2023-09-12T08:17:57;25.37;;;16.90;;
13263;SDS011;6700;51.988;7.646;2023-09-12T08:20:24;24.03;;;17.47;;
13263;SDS011;6700;51.988;7.646;2023-09-12T08:22:51;23.97;;;17.27;;
13263;SDS011;6700;51.988;7.646;2023-09-12T08:25:18;23.53;;;17.70;;
13263;SDS011;6700;51.988;7.646;2023-09-12T08:27:46;24.57;;;17.50;;
13263;SDS011;6700;51.988;7.646;2023-09-12T08:30:13;25.23;;;16.57;;
13263;SDS011;6700;51.988;7.646;2023-09-12T08:32:40;19.73;;;16.63;;
13263;SDS011;6700;51.988;7.646;2023-09-12T08:35:11;20.03;;;16.53;;
13263;SDS011;6700;51.988;7.646;2023-09-12T08:37:42;23.67;;;16.63;;
13263;SDS011;6700;51.988;7.646;2023-09-12T08:40:10;24.03;;;17.10;;
13263;SDS011;6700;51.988;7.646;2023-09-12T08:42:38;21.97;;;17.10;;
13263;SDS011;6700;51.988;7.646;2023-09-12T08:45:11;22.80;;;16.93;;
13263;SDS011;6700;51.988;7.646;2023-09-12T08:47:40;22.40;;;16.70;;
13263;SDS011;6700;51.988;7.646;2023-09-12T08:50:10;21.47;;;17.13;;
13263;SDS011;6700;51.988;7.646;2023-09-12T08:52:39;21.93;;;16.30;;
13263;SDS011;6700;51.988;7.646;2023-09-12T08:55:28;19.70;;;15.83;;
13263;SDS011;6700;51.988;7.646;2023-09-12T08:57:56;19.63;;;15.83;;
13263;SDS011;6700;51.988;7.646;2023-09-12T09:00:24;18.73;;;16.20;;
13263;SDS011;6700;51.988;7.646;2023-09-12T09:02:52;21.10;;;16.07;;
13263;SDS011;6700;51.988;7.646;2023-09-12T09:05:20;20.77;;;16.37;;
13263;SDS011;6700;51.988;7.646;2023-09-12T09:07:49;22.20;;;16.77;;
13263;SDS011;6700;51.988;7.646;2023-09-12T09:10:17;23.13;;;16.93;;
13263;SDS011;6700;51.988;7.646;2023-09-12T09:12:51;21.30;;;17.37;;
13263;SDS011;6700;51.988;7.646;2023-09-12T09:15:23;19.60;;;15.67;;
13263;SDS011;6700;51.988;7.646;2023-09-12T09:17:51;22.10;;;17.23;;
13263;SDS011;6700;51.988;7.646;2023-09-12T09:20:21;19.57;;;17.47;;
13263;SDS011;6700;51.988;7.646;2023-09-12T09:22:58;21.10;;;18.00;;
13263;SDS011;6700;51.988;7.646;2023-09-12T09:25:26;21.27;;;16.17;;
13263;SDS011;6700;51.988;7.646;2023-09-12T09:27:53;22.23;;;17.33;;
13263;SDS011;6700;51.988;7.646;2023-09-12T09:33:07;24.67;;;17.93;;
13263;SDS011;6700;51.988;7.646;2023-09-12T09:35:34;23.80;;;17.48;;
13263;SDS011;6700;51.988;7.646;2023-09-12T09:38:05;21.45;;;16.65;;
13263;SDS011;6700;51.988;7.646;2023-09-12T09:40:33;19.35;;;16.73;;
13263;SDS011;6700;51.988;7.646;2023-09-12T09:43:00;18.70;;;16.58;;
13263;SDS011;6700;51.988;7.646;2023-09-12T09:45:31;21.55;;;17.45;;
13263;SDS011;6700;51.988;7.646;2023-09-12T09:48:05;17.80;;;15.68;;
13263;SDS011;6700;51.988;7.646;2023-09-12T09:50:35;18.92;;;16.13;;
13263;SDS011;6700;51.988;7.646;2023-09-12T09:53:05;16.75;;;14.93;;
13263;SDS011;6700;51.988;7.646;2023-09-12T09:55:35;17.17;;;15.40;;
13263;SDS011;6700;51.988;7.646;2023-09-12T09:58:02;18.88;;;15.90;;
13263;SDS011;6700;51.988;7.646;2023-09-12T10:00:29;14.45;;;12.75;;
13263;SDS011;6700;51.988;7.646;2023-09-12T10:02:59;16.70;;;12.93;;
13263;SDS011;6700;51.988;7.646;2023-09-12T10:05:27;12.68;;;11.23;;
13263;SDS011;6700;51.988;7.646;2023-09-12T10:07:55;12.88;;;11.57;;
13263;SDS011;6700;51.988;7.646;2023-09-12T10:10:24;13.40;;;12.00;;
13263;SDS011;6700;51.988;7.646;2023-09-12T10:12:55;11.98;;;10.77;;
13263;SDS011;6700;51.988;7.646;2023-09-12T10:15:23;13.82;;;11.30;;
13263;SDS011;6700;51.988;7.646;2023-09-12T10:17:57;13.77;;;11.40;;
13263;SDS011;6700;51.988;7.646;2023-09-12T10:20:25;13.00;;;11.70;;
13263;SDS011;6700;51.988;7.646;2023-09-12T10:25:26;13.32;;;11.30;;
13263;SDS011;6700;51.988;7.646;2023-09-12T10:27:55;12.82;;;10.63;;
13263;SDS011;6700;51.988;7.646;2023-09-12T10:30:22;12.82;;;11.52;;
13263;SDS011;6700;51.988;7.646;2023-09-12T10:32:50;12.32;;;10.88;;
13263;SDS011;6700;51.988;7.646;2023-09-12T10:35:18;13.73;;;11.75;;
13263;SDS011;6700;51.988;7.646;2023-09-12T10:37:46;13.27;;;11.88;;
13263;SDS011;6700;51.988;7.646;2023-09-12T10:40:16;11.48;;;10.30;;
13263;SDS011;6700;51.988;7.646;2023-09-12T10:42:44;11.40;;;10.13;;
13263;SDS011;6700;51.988;7.646;2023-09-12T10:45:11;11.45;;;10.35;;
13263;SDS011;6700;51.988;7.646;2023-09-12T10:47:39;11.68;;;10.57;;
13263;SDS011;6700;51.988;7.646;2023-09-12T10:50:06;10.93;;;9.15;;
13263;SDS011;6700;51.988;7.646;2023-09-12T10:52:34;10.93;;;9.52;;
13263;SDS011;6700;51.988;7.646;2023-09-12T10:55:06;12.18;;;10.27;;
13263;SDS011;6700;51.988;7.646;2023-09-12T10:57:33;10.77;;;9.77;;
13263;SDS011;6700;51.988;7.646;2023-09-12T11:02:36;10.02;;;9.02;;
13263;SDS011;6700;51.988;7.646;2023-09-12T11:07:50;9.38;;;8.40;;
13263;SDS011;6700;51.988;7.646;2023-09-12T11:10:17;8.93;;;7.88;;
13263;SDS011;6700;51.988;7.646;2023-09-12T11:12:52;8.45;;;7.75;;
13263;SDS011;6700;51.988;7.646;2023-09-12T11:15:19;9.20;;;8.30;;
13263;SDS011;6700;51.988;7.646;2023-09-12T11:17:50;9.70;;;8.70;;
13263;SDS011;6700;51.988;7.646;2023-09-12T11:20:48;10.60;;;8.05;;
13263;SDS011;6700;51.988;7.646;2023-09-12T11:23:13;9.52;;;8.60;;
13263;SDS011;6700;51.988;7.646;2023-09-12T11:25:40;9.00;;;8.10;;
13263;SDS011;6700;51.988;7.646;2023-09-12T11:28:07;9.48;;;8.57;;
13263;SDS011;6700;51.988;7.646;2023-09-12T11:30:35;10.57;;;9.55;;
13263;SDS011;6700;51.988;7.646;2023-09-12T11:33:05;10.00;;;8.70;;
13263;SDS011;6700;51.988;7.646;2023-09-12T11:35:35;7.70;;;7.00;;
13263;SDS011;6700;51.988;7.646;2023-09-12T11:38:03;10.00;;;8.38;;
13263;SDS011;6700;51.988;7.646;2023-09-12T11:43:03;6.90;;;6.30;;
13263;SDS011;6700;51.988;7.646;2023-09-12T11:45:31;8.88;;;6.93;;
13263;SDS011;6700;51.988;7.646;2023-09-12T11:47:58;7.22;;;6.30;;
13263;SDS011;6700;51.988;7.646;2023-09-12T11:53:03;8.05;;;7.25;;
13263;SDS011;6700;51.988;7.646;2023-09-12T11:55:43;7.95;;;7.13;;
13263;SDS011;6700;51.988;7.646;2023-09-12T11:58:12;8.35;;;7.38;;
13263;SDS011;6700;51.988;7.646;2023-09-12T12:00:46;7.25;;;6.65;;
13263;SDS011;6700;51.988;7.646;2023-09-12T12:03:14;7.70;;;7.00;;
13263;SDS011;6700;51.988;7.646;2023-09-12T12:05:41;13.32;;;8.07;;
13263;SDS011;6700;51.988;7.646;2023-09-12T12:08:12;8.88;;;8.02;;
13263;SDS011;6700;51.988;7.646;2023-09-12T12:10:56;8.70;;;7.22;;
13263;SDS011;6700;51.988;7.646;2023-09-12T12:13:27;6.68;;;6.07;;
13263;SDS011;6700;51.988;7.646;2023-09-12T12:15:55;6.05;;;5.45;;
13263;SDS011;6700;51.988;7.646;2023-09-12T12:18:25;8.55;;;5.63;;
13263;SDS011;6700;51.988;7.646;2023-09-12T12:20:53;7.78;;;6.35;;
13263;SDS011;6700;51.988;7.646;2023-09-12T12:23:20;7.18;;;6.60;;
13263;SDS011;6700;51.988;7.646;2023-09-12T12:25:48;7.22;;;6.05;;
13263;SDS011;6700;51.988;7.646;2023-09-12T12:28:15;7.40;;;6.70;;
13263;SDS011;6700;51.988;7.646;2023-09-12T12:30:43;7.13;;;6.45;;
13263;SDS011;6700;51.988;7.646;2023-09-12T12:33:10;7.68;;;6.85;;
13263;SDS011;6700;51.988;7.646;2023-09-12T12:36:01;8.13;;;7.35;;
13263;SDS011;6700;51.988;7.646;2023-09-12T12:38:36;7.68;;;5.95;;
13263;SDS011;6700;51.988;7.646;2023-09-12T12:41:13;7.95;;;6.38;;
13263;SDS011;6700;51.988;7.646;2023-09-12T12:43:40;7.13;;;6.43;;
13263;SDS011;6700;51.988;7.646;2023-09-12T12:46:11;7.63;;;6.20;;
13263;SDS011;6700;51.988;7.646;2023-09-12T12:48:41;6.55;;;5.85;;
13263;SDS011;6700;51.988;7.646;2023-09-12T12:51:19;6.75;;;6.15;;
13263;SDS011;6700;51.988;7.646;2023-09-12T12:53:49;7.07;;;6.38;;
13263;SDS011;6700;51.988;7.646;2023-09-12T12:56:20;8.23;;;6.60;;
13263;SDS011;6700;51.988;7.646;2023-09-12T12:58:49;6.28;;;5.68;;
13263;SDS011;6700;51.988;7.646;2023-09-12T13:01:16;6.85;;;6.25;;
13263;SDS011;6700;51.988;7.646;2023-09-12T13:03:44;7.30;;;6.22;;
13263;SDS011;6700;51.988;7.646;2023-09-12T13:06:12;7.43;;;6.70;;
13263;SDS011;6700;51.988;7.646;2023-09-12T13:08:41;6.45;;;5.85;;
13263;SDS011;6700;51.988;7.646;2023-09-12T13:11:10;6.25;;;5.65;;
13263;SDS011;6700;51.988;7.646;2023-09-12T13:13:40;7.20;;;6.20;;
13263;SDS011;6700;51.988;7.646;2023-09-12T13:16:09;8.23;;;6.05;;
13263;SDS011;6700;51.988;7.646;2023-09-12T13:18:37;6.57;;;6.03;;
13263;SDS011;6700;51.988;7.646;2023-09-12T13:21:04;6.50;;;5.95;;
13263;SDS011;6700;51.988;7.646;2023-09-12T13:23:35;7.57;;;6.03;;
13263;SDS011;6700;51.988;7.646;2023-09-12T13:26:03;10.23;;;9.13;;
13263;SDS011;6700;51.988;7.646;2023-09-12T13:28:30;12.25;;;10.98;;
13263;SDS011;6700;51.988;7.646;2023-09-12T13:30:58;8.18;;;7.38;;
13263;SDS011;6700;51.988;7.646;2023-09-12T13:33:26;6.75;;;6.15;;
13263;SDS011;6700;51.988;7.646;2023-09-12T13:35:53;6.82;;;6.13;;
13263;SDS011;6700;51.988;7.646;2023-09-12T13:38:20;8.77;;;7.43;;
13263;SDS011;6700;51.988;7.646;2023-09-12T13:40:49;7.90;;;6.68;;
13263;SDS011;6700;51.988;7.646;2023-09-12T13:43:16;9.15;;;6.38;;
13263;SDS011;6700;51.988;7.646;2023-09-12T13:45:44;7.18;;;6.43;;
13263;SDS011;6700;51.988;7.646;2023-09-12T13:48:12;7.32;;;6.63;;
13263;SDS011;6700;51.988;7.646;2023-09-12T13:50:40;10.82;;;6.97;;
13263;SDS011;6700;51.988;7.646;2023-09-12T13:53:09;7.07;;;6.00;;
13263;SDS011;6700;51.988;7.646;2023-09-12T13:55:37;7.20;;;6.05;;
13263;SDS011;6700;51.988;7.646;2023-09-12T13:58:24;6.90;;;6.25;;
13263;SDS011;6700;51.988;7.646;2023-09-12T14:01:01;6.32;;;5.75;;
13263;SDS011;6700;51.988;7.646;2023-09-12T14:03:29;6.50;;;5.63;;
13263;SDS011;6700;51.988;7.646;2023-09-12T14:05:58;8.57;;;6.07;;
13263;SDS011;6700;51.988;7.646;2023-09-12T14:08:26;6.20;;;5.60;;
13263;SDS011;6700;51.988;7.646;2023-09-12T14:10:55;6.28;;;5.55;;
13263;SDS011;6700;51.988;7.646;2023-09-12T14:13:23;5.80;;;5.20;;
13263;SDS011;6700;51.988;7.646;2023-09-12T14:15:50;7.93;;;6.45;;
13263;SDS011;6700;51.988;7.646;2023-09-12T14:18:21;8.25;;;7.50;;
13263;SDS011;6700;51.988;7.646;2023-09-12T14:20:49;6.15;;;5.50;;
13263;SDS011;6700;51.988;7.646;2023-09-12T14:23:19;5.65;;;5.22;;
13263;SDS011;6700;51.988;7.646;2023-09-12T14:25:48;6.72;;;5.70;;
13263;SDS011;6700;51.988;7.646;2023-09-12T14:28:15;6.30;;;5.65;;
13263;SDS011;6700;51.988;7.646;2023-09-12T14:30:44;5.75;;;5.25;;
13263;SDS011;6700;51.988;7.646;2023-09-12T14:33:12;40.05;;;30.40;;
13263;SDS011;6700;51.988;7.646;2023-09-12T14:35:43;9.07;;;8.13;;
13263;SDS011;6700;51.988;7.646;2023-09-12T14:38:11;6.82;;;6.22;;
13263;SDS011;6700;51.988;7.646;2023-09-12T14:40:38;5.82;;;5.15;;
13263;SDS011;6700;51.988;7.646;2023-09-12T14:43:10;10.52;;;6.25;;
13263;SDS011;6700;51.988;7.646;2023-09-12T14:45:37;6.18;;;5.68;;
13263;SDS011;6700;51.988;7.646;2023-09-12T14:48:05;9.75;;;5.57;;
13263;SDS011;6700;51.988;7.646;2023-09-12T14:50:33;5.85;;;5.35;;
13263;SDS011;6700;51.988;7.646;2023-09-12T14:53:10;5.93;;;5.43;;
13263;SDS011;6700;51.988;7.646;2023-09-12T14:55:38;6.35;;;5.75;;
13263;SDS011;6700;51.988;7.646;2023-09-12T14:58:06;6.47;;;5.78;;
13263;SDS011;6700;51.988;7.646;2023-09-12T15:00:35;7.47;;;5.40;;
13263;SDS011;6700;51.988;7.646;2023-09-12T15:03:04;5.70;;;5.18;;
13263;SDS011;6700;51.988;7.646;2023-09-12T15:05:31;6.38;;;5.60;;
13263;SDS011;6700;51.988;7.646;2023-09-12T15:07:58;6.22;;;5.65;;
13263;SDS011;6700;51.988;7.646;2023-09-12T15:10:25;6.85;;;6.30;;